sensor_id;sensor_type;location;lat;lon;timestamp;temperature;humidity
8539;DHT22;4307;53.868;11.680;2023-08-21T00:00:22;19.50;99.90
8539;DHT22;4307;53.868;11.680;2023-08-21T00:02:48;19.40;99.90
8539;DHT22;4307;53.868;11.680;2023-08-21T00:05:15;19.40;99.90
8539;DHT22;4307;53.868;11.680;2023-08-21T00:07:43;19.30;99.90
8539;DHT22;4307;53.868;11.680;2023-08-21T00:10:10;19.30;99.90
8539;DHT22;4307;53.868;11.680;2023-08-21T00:12:39;19.30;99.90
8539;DHT22;4307;53.868;11.680;2023-08-21T00:15:07;19.20;99.90
8539;DHT22;4307;53.868;11.680;2023-08-21T00:17:35;19.20;99.90
8539;DHT22;4307;53.868;11.680;2023-08-21T00:20:01;19.20;99.90
8539;DHT22;4307;53.868;11.680;2023-08-21T00:22:29;19.10;99.90
8539;DHT22;4307;53.868;11.680;2023-08-21T00:24:57;19.10;99.90
8539;DHT22;4307;53.868;11.680;2023-08-21T00:27:23;19.10;99.90
8539;DHT22;4307;53.868;11.680;2023-08-21T00:29:50;19.10;99.90
8539;DHT22;4307;53.868;11.680;2023-08-21T00:32:17;19.00;99.90
8539;DHT22;4307;53.868;11.680;2023-08-21T00:34:43;19.00;99.90
8539;DHT22;4307;53.868;11.680;2023-08-21T00:37:10;19.00;99.90
8539;DHT22;4307;53.868;11.680;2023-08-21T00:39:37;19.00;99.90
8539;DHT22;4307;53.868;11.680;2023-08-21T00:42:05;18.90;99.90
8539;DHT22;4307;53.868;11.680;2023-08-21T00:44:32;18.90;99.90
8539;DHT22;4307;53.868;11.680;2023-08-21T00:46:59;18.80;99.90
8539;DHT22;4307;53.868;11.680;2023-08-21T00:49:27;18.80;99.90
8539;DHT22;4307;53.868;11.680;2023-08-21T00:51:53;18.70;99.90
8539;DHT22;4307;53.868;11.680;2023-08-21T00:54:20;18.70;99.90
8539;DHT22;4307;53.868;11.680;2023-08-21T00:56:47;18.70;99.90
8539;DHT22;4307;53.868;11.680;2023-08-21T00:59:15;18.60;99.90
8539;DHT22;4307;53.868;11.680;2023-08-21T01:01:42;18.60;99.90
8539;DHT22;4307;53.868;11.680;2023-08-21T01:04:09;18.60;99.90
8539;DHT22;4307;53.868;11.680;2023-08-21T01:06:35;18.50;99.90
8539;DHT22;4307;53.868;11.680;2023-08-21T01:09:07;18.50;99.90
8539;DHT22;4307;53.868;11.680;2023-08-21T01:11:40;18.40;99.90
8539;DHT22;4307;53.868;11.680;2023-08-21T01:14:13;18.40;99.90
8539;DHT22;4307;53.868;11.680;2023-08-21T01:16:44;18.30;99.90
8539;DHT22;4307;53.868;11.680;2023-08-21T01:19:21;18.30;99.90
8539;DHT22;4307;53.868;11.680;2023-08-21T01:21:51;18.30;99.90
8539;DHT22;4307;53.868;11.680;2023-08-21T01:24:20;18.30;99.90
8539;DHT22;4307;53.868;11.680;2023-08-21T01:26:47;18.20;99.90
8539;DHT22;4307;53.868;11.680;2023-08-21T01:29:13;18.20;99.90
8539;DHT22;4307;53.868;11.680;2023-08-21T01:31:44;18.10;99.90
8539;DHT22;4307;53.868;11.680;2023-08-21T01:34:14;18.10;99.90
8539;DHT22;4307;53.868;11.680;2023-08-21T01:36:41;18.10;99.90
8539;DHT22;4307;53.868;11.680;2023-08-21T01:39:09;18.10;99.90
8539;DHT22;4307;53.868;11.680;2023-08-21T01:41:37;18.10;99.90
8539;DHT22;4307;53.868;11.680;2023-08-21T01:44:03;18.10;99.90
8539;DHT22;4307;53.868;11.680;2023-08-21T01:46:30;18.20;99.90
8539;DHT22;4307;53.868;11.680;2023-08-21T01:48:57;18.20;99.90
8539;DHT22;4307;53.868;11.680;2023-08-21T01:51:23;18.20;99.90
8539;DHT22;4307;53.868;11.680;2023-08-21T01:53:50;18.20;99.90
8539;DHT22;4307;53.868;11.680;2023-08-21T01:56:17;18.20;99.90
8539;DHT22;4307;53.868;11.680;2023-08-21T01:58:45;18.10;99.90
8539;DHT22;4307;53.868;11.680;2023-08-21T02:01:11;18.10;99.90
8539;DHT22;4307;53.868;11.680;2023-08-21T02:03:40;18.10;99.90
8539;DHT22;4307;53.868;11.680;2023-08-21T02:06:07;18.10;99.90
8539;DHT22;4307;53.868;11.680;2023-08-21T02:08:34;18.00;99.90
8539;DHT22;4307;53.868;11.680;2023-08-21T02:11:00;18.00;99.90
8539;DHT22;4307;53.868;11.680;2023-08-21T02:13:27;17.90;99.90
8539;DHT22;4307;53.868;11.680;2023-08-21T02:15:55;17.90;99.90
8539;DHT22;4307;53.868;11.680;2023-08-21T02:18:22;17.90;99.90
8539;DHT22;4307;53.868;11.680;2023-08-21T02:20:48;17.90;99.90
8539;DHT22;4307;53.868;11.680;2023-08-21T02:23:16;17.90;99.90
8539;DHT22;4307;53.868;11.680;2023-08-21T02:25:42;17.80;99.90
8539;DHT22;4307;53.868;11.680;2023-08-21T02:28:09;17.80;99.90
8539;DHT22;4307;53.868;11.680;2023-08-21T02:30:36;17.70;99.90
8539;DHT22;4307;53.868;11.680;2023-08-21T02:33:07;17.70;99.90
8539;DHT22;4307;53.868;11.680;2023-08-21T02:35:34;17.60;99.90
8539;DHT22;4307;53.868;11.680;2023-08-21T02:38:01;17.60;99.90
8539;DHT22;4307;53.868;11.680;2023-08-21T02:40:28;17.60;99.90
8539;DHT22;4307;53.868;11.680;2023-08-21T02:42:54;17.60;99.90
8539;DHT22;4307;53.868;11.680;2023-08-21T02:45:21;17.50;99.90
8539;DHT22;4307;53.868;11.680;2023-08-21T02:47:47;17.50;99.90
8539;DHT22;4307;53.868;11.680;2023-08-21T02:50:15;17.50;99.90
8539;DHT22;4307;53.868;11.680;2023-08-21T02:52:42;17.50;99.90
8539;DHT22;4307;53.868;11.680;2023-08-21T02:55:09;17.50;99.90
8539;DHT22;4307;53.868;11.680;2023-08-21T02:57:35;17.40;99.90
8539;DHT22;4307;53.868;11.680;2023-08-21T03:00:03;17.20;99.90
8539;DHT22;4307;53.868;11.680;2023-08-21T03:02:30;17.30;99.90
8539;DHT22;4307;53.868;11.680;2023-08-21T03:04:57;17.20;99.90
8539;DHT22;4307;53.868;11.680;2023-08-21T03:07:25;17.20;99.90
8539;DHT22;4307;53.868;11.680;2023-08-21T03:09:52;17.10;99.90
8539;DHT22;4307;53.868;11.680;2023-08-21T03:12:18;17.20;99.90
8539;DHT22;4307;53.868;11.680;2023-08-21T03:14:46;17.10;99.90
8539;DHT22;4307;53.868;11.680;2023-08-21T03:17:12;17.10;99.90
8539;DHT22;4307;53.868;11.680;2023-08-21T03:19:39;17.10;99.90
8539;DHT22;4307;53.868;11.680;2023-08-21T03:22:06;17.10;99.90
8539;DHT22;4307;53.868;11.680;2023-08-21T03:24:34;17.10;99.90
8539;DHT22;4307;53.868;11.680;2023-08-21T03:27:01;17.00;99.90
8539;DHT22;4307;53.868;11.680;2023-08-21T03:29:28;17.00;99.90
8539;DHT22;4307;53.868;11.680;2023-08-21T03:31:54;16.90;99.90
8539;DHT22;4307;53.868;11.680;2023-08-21T03:34:21;16.90;99.90
8539;DHT22;4307;53.868;11.680;2023-08-21T03:36:48;16.90;99.90
8539;DHT22;4307;53.868;11.680;2023-08-21T03:39:14;16.80;99.90
8539;DHT22;4307;53.868;11.680;2023-08-21T03:41:43;16.80;99.90
8539;DHT22;4307;53.868;11.680;2023-08-21T03:44:09;16.80;99.90
8539;DHT22;4307;53.868;11.680;2023-08-21T03:46:36;16.80;99.90
8539;DHT22;4307;53.868;11.680;2023-08-21T03:49:02;16.80;99.90
8539;DHT22;4307;53.868;11.680;2023-08-21T03:51:29;16.80;99.90
8539;DHT22;4307;53.868;11.680;2023-08-21T03:53:56;16.80;99.90
8539;DHT22;4307;53.868;11.680;2023-08-21T03:56:22;16.80;99.90
8539;DHT22;4307;53.868;11.680;2023-08-21T03:58:51;16.80;99.90
8539;DHT22;4307;53.868;11.680;2023-08-21T04:01:18;16.70;99.90
8539;DHT22;4307;53.868;11.680;2023-08-21T04:03:45;16.70;99.90
8539;DHT22;4307;53.868;11.680;2023-08-21T04:06:11;16.70;99.90
8539;DHT22;4307;53.868;11.680;2023-08-21T04:08:38;16.70;99.90
8539;DHT22;4307;53.868;11.680;2023-08-21T04:11:06;16.60;99.90
8539;DHT22;4307;53.868;11.680;2023-08-21T04:13:33;16.60;99.90
8539;DHT22;4307;53.868;11.680;2023-08-21T04:16:00;16.60;99.90
8539;DHT22;4307;53.868;11.680;2023-08-21T04:18:27;16.50;99.90
8539;DHT22;4307;53.868;11.680;2023-08-21T04:20:54;16.50;99.90
8539;DHT22;4307;53.868;11.680;2023-08-21T04:23:20;16.50;99.90
8539;DHT22;4307;53.868;11.680;2023-08-21T04:25:47;16.50;99.90
8539;DHT22;4307;53.868;11.680;2023-08-21T04:28:14;16.50;99.90
8539;DHT22;4307;53.868;11.680;2023-08-21T04:30:40;16.50;99.90
8539;DHT22;4307;53.868;11.680;2023-08-21T04:33:09;16.50;99.90
8539;DHT22;4307;53.868;11.680;2023-08-21T04:35:38;16.50;99.90
8539;DHT22;4307;53.868;11.680;2023-08-21T04:38:05;16.60;99.90
8539;DHT22;4307;53.868;11.680;2023-08-21T04:40:32;16.70;99.90
8539;DHT22;4307;53.868;11.680;2023-08-21T04:42:59;16.80;99.90
8539;DHT22;4307;53.868;11.680;2023-08-21T04:45:26;16.90;99.90
8539;DHT22;4307;53.868;11.680;2023-08-21T04:47:52;17.10;99.90
8539;DHT22;4307;53.868;11.680;2023-08-21T04:50:20;17.20;99.90
8539;DHT22;4307;53.868;11.680;2023-08-21T04:52:47;17.20;99.90
8539;DHT22;4307;53.868;11.680;2023-08-21T04:55:15;17.30;99.90
8539;DHT22;4307;53.868;11.680;2023-08-21T04:57:42;17.50;99.90
8539;DHT22;4307;53.868;11.680;2023-08-21T05:00:09;17.70;99.90
8539;DHT22;4307;53.868;11.680;2023-08-21T05:02:36;17.80;99.90
8539;DHT22;4307;53.868;11.680;2023-08-21T05:05:03;17.80;99.90
8539;DHT22;4307;53.868;11.680;2023-08-21T05:07:32;17.80;99.90
8539;DHT22;4307;53.868;11.680;2023-08-21T05:09:59;17.90;99.90
8539;DHT22;4307;53.868;11.680;2023-08-21T05:12:27;17.90;99.90
8539;DHT22;4307;53.868;11.680;2023-08-21T05:14:53;18.00;99.90
8539;DHT22;4307;53.868;11.680;2023-08-21T05:17:20;18.20;99.90
8539;DHT22;4307;53.868;11.680;2023-08-21T05:19:47;18.50;99.90
8539;DHT22;4307;53.868;11.680;2023-08-21T05:22:13;18.90;99.90
8539;DHT22;4307;53.868;11.680;2023-08-21T05:24:41;19.40;99.90
8539;DHT22;4307;53.868;11.680;2023-08-21T05:27:08;19.90;99.90
8539;DHT22;4307;53.868;11.680;2023-08-21T05:29:35;20.40;99.90
8539;DHT22;4307;53.868;11.680;2023-08-21T05:32:02;20.80;99.90
8539;DHT22;4307;53.868;11.680;2023-08-21T05:34:28;21.30;99.90
8539;DHT22;4307;53.868;11.680;2023-08-21T05:36:55;21.70;99.90
8539;DHT22;4307;53.868;11.680;2023-08-21T05:39:22;22.20;99.90
8539;DHT22;4307;53.868;11.680;2023-08-21T05:41:50;22.60;99.90
8539;DHT22;4307;53.868;11.680;2023-08-21T05:44:17;23.00;99.90
8539;DHT22;4307;53.868;11.680;2023-08-21T05:46:44;23.40;99.90
8539;DHT22;4307;53.868;11.680;2023-08-21T05:49:11;23.90;99.90
8539;DHT22;4307;53.868;11.680;2023-08-21T05:51:37;24.30;99.90
8539;DHT22;4307;53.868;11.680;2023-08-21T05:54:04;24.60;99.90
8539;DHT22;4307;53.868;11.680;2023-08-21T05:56:31;25.00;99.90
8539;DHT22;4307;53.868;11.680;2023-08-21T05:58:59;25.40;99.90
8539;DHT22;4307;53.868;11.680;2023-08-21T06:01:25;25.60;99.90
8539;DHT22;4307;53.868;11.680;2023-08-21T06:03:52;25.90;99.90
8539;DHT22;4307;53.868;11.680;2023-08-21T06:06:19;26.20;99.90
8539;DHT22;4307;53.868;11.680;2023-08-21T06:08:45;26.50;99.90
8539;DHT22;4307;53.868;11.680;2023-08-21T06:11:12;26.80;99.90
8539;DHT22;4307;53.868;11.680;2023-08-21T06:13:40;27.10;99.90
8539;DHT22;4307;53.868;11.680;2023-08-21T06:16:08;27.30;99.90
8539;DHT22;4307;53.868;11.680;2023-08-21T06:18:34;27.60;99.90
8539;DHT22;4307;53.868;11.680;2023-08-21T06:21:01;27.90;99.90
8539;DHT22;4307;53.868;11.680;2023-08-21T06:23:27;28.10;99.90
8539;DHT22;4307;53.868;11.680;2023-08-21T06:25:54;28.30;99.90
8539;DHT22;4307;53.868;11.680;2023-08-21T06:28:21;28.30;99.90
8539;DHT22;4307;53.868;11.680;2023-08-21T06:30:47;28.40;99.90
8539;DHT22;4307;53.868;11.680;2023-08-21T06:33:21;28.50;99.90
8539;DHT22;4307;53.868;11.680;2023-08-21T06:35:48;28.70;99.90
8539;DHT22;4307;53.868;11.680;2023-08-21T06:38:14;28.70;99.90
8539;DHT22;4307;53.868;11.680;2023-08-21T06:40:41;28.80;99.90
8539;DHT22;4307;53.868;11.680;2023-08-21T06:43:07;29.00;99.90
8539;DHT22;4307;53.868;11.680;2023-08-21T06:45:34;29.00;99.90
8539;DHT22;4307;53.868;11.680;2023-08-21T06:48:01;28.70;99.70
8539;DHT22;4307;53.868;11.680;2023-08-21T06:50:30;28.40;99.80
8539;DHT22;4307;53.868;11.680;2023-08-21T06:52:56;28.30;99.80
8539;DHT22;4307;53.868;11.680;2023-08-21T06:55:23;28.40;99.80
8539;DHT22;4307;53.868;11.680;2023-08-21T06:57:49;28.50;99.40
8539;DHT22;4307;53.868;11.680;2023-08-21T07:00:16;28.40;99.10
8539;DHT22;4307;53.868;11.680;2023-08-21T07:02:43;28.00;99.00
8539;DHT22;4307;53.868;11.680;2023-08-21T07:05:10;27.90;99.20
8539;DHT22;4307;53.868;11.680;2023-08-21T07:07:38;28.00;99.00
8539;DHT22;4307;53.868;11.680;2023-08-21T07:10:05;28.10;98.70
8539;DHT22;4307;53.868;11.680;2023-08-21T07:12:31;28.40;98.20
8539;DHT22;4307;53.868;11.680;2023-08-21T07:14:58;28.60;98.10
8539;DHT22;4307;53.868;11.680;2023-08-21T07:17:25;28.90;97.20
8539;DHT22;4307;53.868;11.680;2023-08-21T07:19:51;29.10;96.40
8539;DHT22;4307;53.868;11.680;2023-08-21T07:22:18;29.20;95.70
8539;DHT22;4307;53.868;11.680;2023-08-21T07:24:47;29.30;95.30
8539;DHT22;4307;53.868;11.680;2023-08-21T07:27:14;29.30;95.00
8539;DHT22;4307;53.868;11.680;2023-08-21T07:29:40;29.40;94.80
8539;DHT22;4307;53.868;11.680;2023-08-21T07:32:07;29.40;94.50
8539;DHT22;4307;53.868;11.680;2023-08-21T07:34:34;29.50;94.30
8539;DHT22;4307;53.868;11.680;2023-08-21T07:37:00;29.60;93.80
8539;DHT22;4307;53.868;11.680;2023-08-21T07:39:27;29.70;93.60
8539;DHT22;4307;53.868;11.680;2023-08-21T07:41:55;29.80;93.40
8539;DHT22;4307;53.868;11.680;2023-08-21T07:44:22;29.70;93.00
8539;DHT22;4307;53.868;11.680;2023-08-21T07:46:48;29.60;92.70
8539;DHT22;4307;53.868;11.680;2023-08-21T07:49:15;29.60;92.70
8539;DHT22;4307;53.868;11.680;2023-08-21T07:51:41;29.60;92.70
8539;DHT22;4307;53.868;11.680;2023-08-21T07:54:08;29.60;92.60
8539;DHT22;4307;53.868;11.680;2023-08-21T07:56:35;29.60;92.40
8539;DHT22;4307;53.868;11.680;2023-08-21T07:59:03;29.70;92.30
8539;DHT22;4307;53.868;11.680;2023-08-21T08:01:29;29.60;92.40
8539;DHT22;4307;53.868;11.680;2023-08-21T08:03:58;29.60;92.30
8539;DHT22;4307;53.868;11.680;2023-08-21T08:06:24;29.80;92.30
8539;DHT22;4307;53.868;11.680;2023-08-21T08:08:51;29.90;92.00
8539;DHT22;4307;53.868;11.680;2023-08-21T08:11:18;30.10;91.70
8539;DHT22;4307;53.868;11.680;2023-08-21T08:13:45;30.20;91.40
8539;DHT22;4307;53.868;11.680;2023-08-21T08:16:12;30.20;91.10
8539;DHT22;4307;53.868;11.680;2023-08-21T08:18:39;30.20;91.00
8539;DHT22;4307;53.868;11.680;2023-08-21T08:21:06;30.30;90.90
8539;DHT22;4307;53.868;11.680;2023-08-21T08:23:32;30.50;90.80
8539;DHT22;4307;53.868;11.680;2023-08-21T08:25:59;30.80;90.60
8539;DHT22;4307;53.868;11.680;2023-08-21T08:28:26;31.00;90.20
8539;DHT22;4307;53.868;11.680;2023-08-21T08:30:52;31.10;90.00
8539;DHT22;4307;53.868;11.680;2023-08-21T08:33:21;31.10;89.40
8539;DHT22;4307;53.868;11.680;2023-08-21T08:35:47;31.20;89.00
8539;DHT22;4307;53.868;11.680;2023-08-21T08:38:14;31.20;88.40
8539;DHT22;4307;53.868;11.680;2023-08-21T08:40:44;31.10;87.80
8539;DHT22;4307;53.868;11.680;2023-08-21T08:43:11;31.10;86.80
8539;DHT22;4307;53.868;11.680;2023-08-21T08:45:40;31.10;86.40
8539;DHT22;4307;53.868;11.680;2023-08-21T08:48:07;31.10;86.40
8539;DHT22;4307;53.868;11.680;2023-08-21T08:50:37;31.10;86.00
8539;DHT22;4307;53.868;11.680;2023-08-21T08:53:06;31.00;85.60
8539;DHT22;4307;53.868;11.680;2023-08-21T08:55:33;30.80;85.40
8539;DHT22;4307;53.868;11.680;2023-08-21T08:58:03;30.70;85.50
8539;DHT22;4307;53.868;11.680;2023-08-21T09:00:30;30.60;85.70
8539;DHT22;4307;53.868;11.680;2023-08-21T09:02:57;30.60;85.90
8539;DHT22;4307;53.868;11.680;2023-08-21T09:05:24;30.50;86.10
8539;DHT22;4307;53.868;11.680;2023-08-21T09:08:04;30.60;85.90
8539;DHT22;4307;53.868;11.680;2023-08-21T09:10:36;30.60;84.70
8539;DHT22;4307;53.868;11.680;2023-08-21T09:13:09;30.60;84.80
8539;DHT22;4307;53.868;11.680;2023-08-21T09:15:36;30.50;84.30
8539;DHT22;4307;53.868;11.680;2023-08-21T09:18:03;30.40;83.70
8539;DHT22;4307;53.868;11.680;2023-08-21T09:20:34;30.30;83.40
8539;DHT22;4307;53.868;11.680;2023-08-21T09:23:03;30.30;83.50
8539;DHT22;4307;53.868;11.680;2023-08-21T09:25:34;30.50;83.30
8539;DHT22;4307;53.868;11.680;2023-08-21T09:28:04;30.30;81.90
8539;DHT22;4307;53.868;11.680;2023-08-21T09:30:43;30.10;81.80
8539;DHT22;4307;53.868;11.680;2023-08-21T09:33:11;30.00;81.90
8539;DHT22;4307;53.868;11.680;2023-08-21T09:35:38;29.90;82.70
8539;DHT22;4307;53.868;11.680;2023-08-21T09:38:08;29.80;83.00
8539;DHT22;4307;53.868;11.680;2023-08-21T09:40:39;29.40;83.20
8539;DHT22;4307;53.868;11.680;2023-08-21T09:43:05;29.00;83.30
8539;DHT22;4307;53.868;11.680;2023-08-21T09:45:33;28.80;83.70
8539;DHT22;4307;53.868;11.680;2023-08-21T09:48:00;28.70;83.60
8539;DHT22;4307;53.868;11.680;2023-08-21T09:50:28;28.70;83.90
8539;DHT22;4307;53.868;11.680;2023-08-21T09:52:56;28.60;84.30
8539;DHT22;4307;53.868;11.680;2023-08-21T09:55:24;28.80;83.90
8539;DHT22;4307;53.868;11.680;2023-08-21T09:57:53;28.90;83.50
8539;DHT22;4307;53.868;11.680;2023-08-21T10:00:24;29.00;83.40
8539;DHT22;4307;53.868;11.680;2023-08-21T10:02:51;28.90;83.40
8539;DHT22;4307;53.868;11.680;2023-08-21T10:05:18;28.80;83.60
8539;DHT22;4307;53.868;11.680;2023-08-21T10:07:47;28.60;83.90
8539;DHT22;4307;53.868;11.680;2023-08-21T10:10:15;28.60;83.90
8539;DHT22;4307;53.868;11.680;2023-08-21T10:12:43;28.60;84.00
8539;DHT22;4307;53.868;11.680;2023-08-21T10:15:10;28.60;83.90
8539;DHT22;4307;53.868;11.680;2023-08-21T10:17:37;28.60;83.90
8539;DHT22;4307;53.868;11.680;2023-08-21T10:20:06;28.70;84.00
8539;DHT22;4307;53.868;11.680;2023-08-21T10:22:39;28.90;83.60
8539;DHT22;4307;53.868;11.680;2023-08-21T10:25:14;29.10;82.40
8539;DHT22;4307;53.868;11.680;2023-08-21T10:27:41;29.20;81.70
8539;DHT22;4307;53.868;11.680;2023-08-21T10:30:14;29.30;81.70
8539;DHT22;4307;53.868;11.680;2023-08-21T10:32:45;29.40;81.20
8539;DHT22;4307;53.868;11.680;2023-08-21T10:35:14;29.50;81.30
8539;DHT22;4307;53.868;11.680;2023-08-21T10:38:10;29.50;81.30
8539;DHT22;4307;53.868;11.680;2023-08-21T10:40:38;29.60;80.30
8539;DHT22;4307;53.868;11.680;2023-08-21T10:43:37;29.40;79.80
8539;DHT22;4307;53.868;11.680;2023-08-21T10:46:06;29.30;79.40
8539;DHT22;4307;53.868;11.680;2023-08-21T10:48:33;29.30;79.20
8539;DHT22;4307;53.868;11.680;2023-08-21T10:51:01;29.30;78.90
8539;DHT22;4307;53.868;11.680;2023-08-21T10:53:29;29.40;78.70
8539;DHT22;4307;53.868;11.680;2023-08-21T10:55:56;29.40;78.20
8539;DHT22;4307;53.868;11.680;2023-08-21T10:58:23;29.50;77.90
8539;DHT22;4307;53.868;11.680;2023-08-21T11:00:56;29.50;77.70
8539;DHT22;4307;53.868;11.680;2023-08-21T11:03:24;29.60;78.10
8539;DHT22;4307;53.868;11.680;2023-08-21T11:06:02;29.70;77.60
8539;DHT22;4307;53.868;11.680;2023-08-21T11:08:29;29.70;77.50
8539;DHT22;4307;53.868;11.680;2023-08-21T11:10:56;29.80;77.60
8539;DHT22;4307;53.868;11.680;2023-08-21T11:13:23;29.80;77.40
8539;DHT22;4307;53.868;11.680;2023-08-21T11:15:57;29.80;77.00
8539;DHT22;4307;53.868;11.680;2023-08-21T11:18:31;29.80;76.40
8539;DHT22;4307;53.868;11.680;2023-08-21T11:21:06;29.90;76.30
8539;DHT22;4307;53.868;11.680;2023-08-21T11:23:34;29.90;75.70
8539;DHT22;4307;53.868;11.680;2023-08-21T11:26:02;29.70;75.30
8539;DHT22;4307;53.868;11.680;2023-08-21T11:28:30;29.50;75.30
8539;DHT22;4307;53.868;11.680;2023-08-21T11:30:57;29.40;75.10
8539;DHT22;4307;53.868;11.680;2023-08-21T11:33:26;29.50;75.00
8539;DHT22;4307;53.868;11.680;2023-08-21T11:35:55;29.40;74.90
8539;DHT22;4307;53.868;11.680;2023-08-21T11:38:23;29.40;75.00
8539;DHT22;4307;53.868;11.680;2023-08-21T11:40:52;29.40;74.80
8539;DHT22;4307;53.868;11.680;2023-08-21T11:43:19;29.30;74.90
8539;DHT22;4307;53.868;11.680;2023-08-21T11:45:46;29.20;74.60
8539;DHT22;4307;53.868;11.680;2023-08-21T11:48:13;29.10;74.40
8539;DHT22;4307;53.868;11.680;2023-08-21T11:50:39;29.10;74.70
8539;DHT22;4307;53.868;11.680;2023-08-21T11:53:07;29.00;74.40
8539;DHT22;4307;53.868;11.680;2023-08-21T11:55:36;29.00;73.90
8539;DHT22;4307;53.868;11.680;2023-08-21T11:58:03;29.00;73.30
8539;DHT22;4307;53.868;11.680;2023-08-21T12:00:31;29.10;73.20
8539;DHT22;4307;53.868;11.680;2023-08-21T12:02:58;29.20;72.90
8539;DHT22;4307;53.868;11.680;2023-08-21T12:05:26;29.20;72.80
8539;DHT22;4307;53.868;11.680;2023-08-21T12:07:54;29.30;73.10
8539;DHT22;4307;53.868;11.680;2023-08-21T12:10:26;29.50;73.20
8539;DHT22;4307;53.868;11.680;2023-08-21T12:12:54;29.60;72.60
8539;DHT22;4307;53.868;11.680;2023-08-21T12:15:20;29.80;72.30
8539;DHT22;4307;53.868;11.680;2023-08-21T12:17:47;29.90;72.40
8539;DHT22;4307;53.868;11.680;2023-08-21T12:20:14;30.00;72.10
8539;DHT22;4307;53.868;11.680;2023-08-21T12:22:40;30.20;71.70
8539;DHT22;4307;53.868;11.680;2023-08-21T12:25:08;30.30;71.50
8539;DHT22;4307;53.868;11.680;2023-08-21T12:27:36;30.40;70.80
8539;DHT22;4307;53.868;11.680;2023-08-21T12:30:04;30.50;69.80
8539;DHT22;4307;53.868;11.680;2023-08-21T12:32:31;30.60;69.10
8539;DHT22;4307;53.868;11.680;2023-08-21T12:34:58;30.80;68.40
8539;DHT22;4307;53.868;11.680;2023-08-21T12:37:25;30.90;68.00
8539;DHT22;4307;53.868;11.680;2023-08-21T12:39:53;31.00;67.60
8539;DHT22;4307;53.868;11.680;2023-08-21T12:42:19;31.20;67.50
8539;DHT22;4307;53.868;11.680;2023-08-21T12:44:47;31.60;67.60
8539;DHT22;4307;53.868;11.680;2023-08-21T12:47:14;32.00;67.30
8539;DHT22;4307;53.868;11.680;2023-08-21T12:49:41;32.40;67.10
8539;DHT22;4307;53.868;11.680;2023-08-21T12:52:07;32.70;66.20
8539;DHT22;4307;53.868;11.680;2023-08-21T12:54:34;32.90;65.80
8539;DHT22;4307;53.868;11.680;2023-08-21T12:57:00;33.10;65.30
8539;DHT22;4307;53.868;11.680;2023-08-21T12:59:27;33.30;64.60
8539;DHT22;4307;53.868;11.680;2023-08-21T13:01:55;33.60;64.10
8539;DHT22;4307;53.868;11.680;2023-08-21T13:04:22;33.90;63.30
8539;DHT22;4307;53.868;11.680;2023-08-21T13:06:48;34.00;62.80
8539;DHT22;4307;53.868;11.680;2023-08-21T13:09:15;34.10;62.40
8539;DHT22;4307;53.868;11.680;2023-08-21T13:11:42;34.20;62.10
8539;DHT22;4307;53.868;11.680;2023-08-21T13:14:08;34.20;61.60
8539;DHT22;4307;53.868;11.680;2023-08-21T13:16:35;34.20;60.90
8539;DHT22;4307;53.868;11.680;2023-08-21T13:19:03;34.10;60.60
8539;DHT22;4307;53.868;11.680;2023-08-21T13:21:29;34.30;60.40
8539;DHT22;4307;53.868;11.680;2023-08-21T13:23:56;34.40;59.80
8539;DHT22;4307;53.868;11.680;2023-08-21T13:26:23;34.70;59.60
8539;DHT22;4307;53.868;11.680;2023-08-21T13:28:51;34.90;59.40
8539;DHT22;4307;53.868;11.680;2023-08-21T13:31:18;35.10;59.00
8539;DHT22;4307;53.868;11.680;2023-08-21T13:33:45;35.40;58.60
8539;DHT22;4307;53.868;11.680;2023-08-21T13:36:14;35.40;58.20
8539;DHT22;4307;53.868;11.680;2023-08-21T13:38:42;35.50;57.90
8539;DHT22;4307;53.868;11.680;2023-08-21T13:41:09;35.50;58.00
8539;DHT22;4307;53.868;11.680;2023-08-21T13:43:36;35.30;58.00
8539;DHT22;4307;53.868;11.680;2023-08-21T13:46:03;34.80;57.80
8539;DHT22;4307;53.868;11.680;2023-08-21T13:48:29;34.30;58.70
8539;DHT22;4307;53.868;11.680;2023-08-21T13:50:56;33.80;59.20
8539;DHT22;4307;53.868;11.680;2023-08-21T13:53:24;33.30;59.50
8539;DHT22;4307;53.868;11.680;2023-08-21T13:55:51;32.70;60.00
8539;DHT22;4307;53.868;11.680;2023-08-21T13:58:18;32.30;60.50
8539;DHT22;4307;53.868;11.680;2023-08-21T14:00:44;31.80;61.20
8539;DHT22;4307;53.868;11.680;2023-08-21T14:03:11;31.40;61.80
8539;DHT22;4307;53.868;11.680;2023-08-21T14:05:38;31.00;62.20
8539;DHT22;4307;53.868;11.680;2023-08-21T14:08:05;30.60;62.50
8539;DHT22;4307;53.868;11.680;2023-08-21T14:10:33;30.30;63.60
8539;DHT22;4307;53.868;11.680;2023-08-21T14:13:00;30.10;64.20
8539;DHT22;4307;53.868;11.680;2023-08-21T14:15:29;30.00;64.60
8539;DHT22;4307;53.868;11.680;2023-08-21T14:17:55;29.70;64.90
8539;DHT22;4307;53.868;11.680;2023-08-21T14:20:22;29.50;65.20
8539;DHT22;4307;53.868;11.680;2023-08-21T14:22:49;29.30;65.40
8539;DHT22;4307;53.868;11.680;2023-08-21T14:25:16;29.10;65.90
8539;DHT22;4307;53.868;11.680;2023-08-21T14:27:44;28.90;66.40
8539;DHT22;4307;53.868;11.680;2023-08-21T14:30:11;28.80;67.20
8539;DHT22;4307;53.868;11.680;2023-08-21T14:32:39;28.70;67.70
8539;DHT22;4307;53.868;11.680;2023-08-21T14:35:07;28.60;68.00
8539;DHT22;4307;53.868;11.680;2023-08-21T14:37:33;28.40;68.20
8539;DHT22;4307;53.868;11.680;2023-08-21T14:40:00;28.40;68.30
8539;DHT22;4307;53.868;11.680;2023-08-21T14:42:31;28.20;68.40
8539;DHT22;4307;53.868;11.680;2023-08-21T14:44:59;28.10;68.90
8539;DHT22;4307;53.868;11.680;2023-08-21T14:47:26;28.00;69.30
8539;DHT22;4307;53.868;11.680;2023-08-21T14:49:53;27.80;69.60
8539;DHT22;4307;53.868;11.680;2023-08-21T14:52:20;27.70;69.80
8539;DHT22;4307;53.868;11.680;2023-08-21T14:54:48;27.60;70.40
8539;DHT22;4307;53.868;11.680;2023-08-21T14:57:14;27.60;70.80
8539;DHT22;4307;53.868;11.680;2023-08-21T14:59:41;27.50;71.00
8539;DHT22;4307;53.868;11.680;2023-08-21T15:02:09;27.50;71.20
8539;DHT22;4307;53.868;11.680;2023-08-21T15:04:36;27.40;71.40
8539;DHT22;4307;53.868;11.680;2023-08-21T15:07:03;27.40;71.60
8539;DHT22;4307;53.868;11.680;2023-08-21T15:09:29;27.40;71.90
8539;DHT22;4307;53.868;11.680;2023-08-21T15:11:56;27.30;72.30
8539;DHT22;4307;53.868;11.680;2023-08-21T15:14:22;27.30;72.50
8539;DHT22;4307;53.868;11.680;2023-08-21T15:16:49;27.20;72.70
8539;DHT22;4307;53.868;11.680;2023-08-21T15:19:17;27.20;72.80
8539;DHT22;4307;53.868;11.680;2023-08-21T15:21:44;27.10;72.70
8539;DHT22;4307;53.868;11.680;2023-08-21T15:24:10;27.10;72.80
8539;DHT22;4307;53.868;11.680;2023-08-21T15:26:37;26.90;72.60
8539;DHT22;4307;53.868;11.680;2023-08-21T15:29:03;26.80;72.80
8539;DHT22;4307;53.868;11.680;2023-08-21T15:31:30;26.70;73.10
8539;DHT22;4307;53.868;11.680;2023-08-21T15:33:57;26.60;73.30
8539;DHT22;4307;53.868;11.680;2023-08-21T15:36:25;26.60;73.60
8539;DHT22;4307;53.868;11.680;2023-08-21T15:38:52;26.60;73.90
8539;DHT22;4307;53.868;11.680;2023-08-21T15:41:19;26.50;73.90
8539;DHT22;4307;53.868;11.680;2023-08-21T15:43:46;26.50;73.70
8539;DHT22;4307;53.868;11.680;2023-08-21T15:46:12;26.30;74.00